Terminal Aerodrome Forecast
Issued by NWS Shreveport, LA

Home | Current Version | Previous Version | Text Only | Print | Product List | Glossary On
Versions: 1 2 3 4 5 6 7 8 9 10 11 12 13 14 15 16 17 18 19 20
395
FTUS44 KSHV 280805 AAB
TAFLFK
TAF AMD
KLFK 280805Z 2808/2906 14006KT P6SM SCT015 OVC025
     FM280900 14008KT P6SM OVC015
      TEMPO 2810/2813 3SM BR OVC010
     FM281600 18014G22KT P6SM SCT040
      TEMPO 2820/2824 18018G30KT=

USA.gov is the U.S. government's official web portal to all federal, state and local government web resources and services.